createdAt,value
2023-04-12T00:00:19.463Z,0.00
2023-04-12T00:01:19.674Z,0.00
2023-04-12T00:02:20.146Z,0.00
2023-04-12T00:03:20.677Z,0.00
2023-04-12T00:04:20.755Z,0.00
2023-04-12T00:05:20.873Z,0.00
2023-04-12T00:06:21.064Z,0.00
2023-04-12T00:07:21.293Z,0.00
2023-04-12T00:08:21.646Z,0.00
2023-04-12T00:09:21.870Z,0.00
2023-04-12T00:10:22.204Z,0.00
2023-04-12T00:11:22.423Z,0.00
2023-04-12T00:12:22.767Z,0.00
2023-04-12T00:13:22.978Z,0.00
2023-04-12T00:14:23.307Z,0.00
2023-04-12T00:15:23.639Z,0.00
2023-04-12T00:16:23.967Z,0.00
2023-04-12T00:17:24.126Z,0.00
2023-04-12T00:18:24.349Z,0.00
2023-04-12T00:19:24.557Z,0.00
2023-04-12T00:20:24.781Z,0.00
2023-04-12T00:21:25.004Z,0.00
2023-04-12T00:22:25.343Z,0.00
2023-04-12T00:23:25.613Z,0.00
2023-04-12T00:24:25.846Z,0.00
2023-04-12T00:25:26.067Z,0.00
2023-04-12T00:26:26.402Z,0.00
2023-04-12T00:27:26.656Z,0.00
2023-04-12T00:28:26.993Z,0.00
2023-04-12T00:29:27.210Z,0.00
2023-04-12T00:30:27.565Z,0.00
2023-04-12T00:31:27.812Z,0.00
2023-04-12T00:32:28.164Z,0.00
2023-04-12T00:33:28.369Z,0.00
2023-04-12T00:34:28.608Z,0.00
2023-04-12T00:35:28.839Z,0.00
2023-04-12T00:36:29.053Z,0.00
2023-04-12T00:37:29.263Z,0.00
2023-04-12T00:38:29.620Z,0.00
2023-04-12T00:39:29.846Z,0.00
2023-04-12T00:40:30.182Z,0.00
2023-04-12T00:41:30.411Z,0.00
2023-04-12T00:42:30.751Z,0.00
2023-04-12T00:43:30.992Z,0.00
2023-04-12T00:44:31.213Z,0.00
2023-04-12T00:45:31.443Z,0.00
2023-04-12T00:46:31.836Z,0.00
2023-04-12T00:47:32.104Z,0.00
2023-04-12T00:48:32.315Z,0.00
2023-04-12T00:49:32.535Z,0.00
2023-04-12T00:50:32.775Z,0.00
2023-04-12T00:51:33.005Z,0.00
2023-04-12T00:52:33.246Z,0.00
2023-04-12T00:53:33.491Z,0.00
2023-04-12T00:54:33.713Z,0.00
2023-04-12T00:55:33.964Z,0.00
2023-04-12T00:56:34.276Z,0.00
2023-04-12T00:57:34.515Z,0.00
2023-04-12T00:58:34.842Z,0.00
2023-04-12T00:59:35.070Z,0.00
2023-04-12T01:00:35.420Z,0.00
2023-04-12T01:01:35.629Z,0.00
2023-04-12T01:02:36.081Z,0.00
2023-04-12T01:03:36.372Z,0.00
2023-04-12T01:04:36.542Z,0.00
2023-04-12T01:05:36.758Z,0.00
2023-04-12T01:06:36.991Z,0.00
2023-04-12T01:07:37.204Z,0.00
2023-04-12T01:08:37.449Z,0.00
2023-04-12T01:09:37.665Z,0.00
2023-04-12T01:10:37.993Z,0.00
2023-04-12T01:11:38.214Z,0.00
2023-04-12T01:12:38.559Z,0.00
2023-04-12T01:13:38.796Z,0.00
2023-04-12T01:14:39.051Z,0.00
2023-04-12T01:15:39.274Z,0.00
2023-04-12T01:16:39.746Z,0.00
2023-04-12T01:17:39.973Z,0.00
2023-04-12T01:18:40.169Z,0.00
2023-04-12T01:19:40.392Z,0.00
2023-04-12T01:20:40.725Z,0.00
2023-04-12T01:21:40.973Z,0.00
2023-04-12T01:22:41.319Z,0.00
2023-04-12T01:23:41.577Z,0.00
2023-04-12T01:24:41.812Z,0.00
2023-04-12T01:25:42.043Z,0.00
2023-04-12T01:26:42.282Z,0.00
2023-04-12T01:27:42.498Z,0.00
2023-04-12T01:28:42.862Z,0.00
2023-04-12T01:29:43.077Z,0.00
2023-04-12T01:30:43.431Z,0.00
2023-04-12T01:31:43.703Z,0.00
2023-04-12T01:32:44.049Z,0.00
2023-04-12T01:33:44.254Z,0.00
2023-04-12T01:34:44.497Z,0.00
2023-04-12T01:35:44.737Z,0.00
2023-04-12T01:36:44.993Z,0.00
2023-04-12T01:37:45.192Z,0.00
2023-04-12T01:38:45.578Z,0.00
2023-04-12T01:39:45.791Z,0.00
2023-04-12T01:40:46.034Z,0.00
2023-04-12T01:41:46.261Z,0.00
2023-04-12T01:42:46.605Z,0.00
2023-04-12T01:43:46.869Z,0.00
2023-04-12T01:44:47.102Z,0.00
2023-04-12T01:45:47.366Z,0.00
2023-04-12T01:46:47.746Z,0.00
2023-04-12T01:47:48.033Z,0.00
2023-04-12T01:48:48.260Z,0.00
2023-04-12T01:49:48.473Z,0.00
2023-04-12T01:50:48.833Z,0.00
2023-04-12T01:51:49.064Z,0.00
2023-04-12T01:52:49.309Z,0.00
2023-04-12T01:53:49.579Z,0.00
2023-04-12T01:54:49.804Z,0.00
2023-04-12T01:55:50.024Z,0.00
2023-04-12T01:56:50.387Z,0.00
2023-04-12T01:57:50.608Z,0.00
2023-04-12T01:58:50.973Z,0.00
2023-04-12T01:59:51.170Z,0.00
2023-04-12T02:00:51.570Z,0.00
2023-04-12T02:01:51.960Z,0.00
2023-04-12T02:02:52.109Z,0.00
2023-04-12T02:03:52.475Z,0.00
2023-04-12T02:04:52.523Z,0.00
2023-04-12T02:05:52.741Z,0.00
2023-04-12T02:06:53.080Z,0.00
2023-04-12T02:07:53.412Z,0.00
2023-04-12T02:08:53.753Z,0.00
2023-04-12T02:09:53.967Z,0.00
2023-04-12T02:10:54.319Z,0.00
2023-04-12T02:11:54.576Z,0.00
2023-04-12T02:12:54.922Z,0.00
2023-04-12T02:13:55.508Z,0.00
2023-04-12T02:14:55.460Z,0.00
2023-04-12T02:15:55.686Z,0.00
2023-04-12T02:16:55.919Z,0.00
2023-04-12T02:17:56.187Z,0.00
2023-04-12T02:18:56.402Z,0.00
2023-04-12T02:19:56.605Z,0.00
2023-04-12T02:20:56.945Z,0.00
2023-04-12T02:21:57.208Z,0.00
2023-04-12T02:22:57.557Z,0.00
2023-04-12T02:23:57.970Z,0.00
2023-04-12T02:24:57.998Z,0.00
2023-04-12T02:25:58.247Z,0.00
2023-04-12T02:26:58.473Z,0.00
2023-04-12T02:27:58.722Z,0.00
2023-04-12T02:28:58.953Z,0.00
2023-04-12T02:29:59.177Z,0.00
2023-04-12T02:30:59.555Z,0.00
2023-04-12T02:31:59.751Z,0.00
2023-04-12T02:33:00.264Z,0.00
2023-04-12T02:34:00.383Z,0.00
2023-04-12T02:35:00.610Z,0.00
2023-04-12T02:36:00.873Z,0.00
2023-04-12T02:37:01.091Z,0.00
2023-04-12T02:38:01.336Z,0.00
2023-04-12T02:39:01.645Z,0.00
2023-04-12T02:40:01.882Z,0.00
2023-04-12T02:41:02.244Z,0.00
2023-04-12T02:42:02.482Z,0.00
2023-04-12T02:43:02.824Z,0.00
2023-04-12T02:44:03.066Z,0.00
2023-04-12T02:45:03.301Z,0.00
2023-04-12T02:46:03.572Z,0.00
2023-04-12T02:47:03.784Z,0.00
2023-04-12T02:48:04.066Z,0.00
2023-04-12T02:49:04.269Z,0.00
2023-04-12T02:50:04.489Z,0.00
2023-04-12T02:51:04.713Z,0.00
2023-04-12T02:52:04.947Z,0.00
2023-04-12T02:53:05.286Z,0.00
2023-04-12T02:54:05.640Z,0.00
2023-04-12T02:55:05.802Z,0.00
2023-04-12T02:56:06.733Z,0.00
2023-04-12T02:57:06.304Z,0.00
2023-04-12T02:58:07.062Z,0.00
2023-04-12T02:59:06.871Z,0.00
2023-04-12T03:00:07.074Z,0.00
2023-04-12T03:01:07.344Z,0.00
2023-04-12T03:02:07.591Z,0.00
2023-04-12T03:03:08.077Z,0.00
2023-04-12T03:04:08.242Z,0.00
2023-04-12T03:05:08.461Z,0.00
2023-04-12T03:06:08.679Z,0.00
2023-04-12T03:07:09.036Z,0.00
2023-04-12T03:08:09.265Z,0.00
2023-04-12T03:09:09.496Z,0.00
2023-04-12T03:10:09.750Z,0.00
2023-04-12T03:11:09.973Z,0.00
2023-04-12T03:12:10.321Z,0.00
2023-04-12T03:13:10.692Z,0.00
2023-04-12T03:14:10.898Z,0.00
2023-04-12T03:15:11.144Z,0.00
2023-04-12T03:16:11.489Z,0.00
2023-04-12T03:17:11.690Z,0.00
2023-04-12T03:18:11.980Z,0.00
2023-04-12T03:19:12.266Z,0.00
2023-04-12T03:20:12.467Z,0.00
2023-04-12T03:21:12.708Z,0.00
2023-04-12T03:22:12.952Z,0.00
2023-04-12T03:23:13.188Z,0.00
2023-04-12T03:24:13.550Z,0.00
2023-04-12T03:25:13.785Z,0.00
2023-04-12T03:26:14.031Z,0.00
2023-04-12T03:27:14.258Z,0.00
2023-04-12T03:28:14.691Z,0.00
2023-04-12T03:29:14.936Z,0.00
2023-04-12T03:30:15.184Z,0.00
2023-04-12T03:31:15.533Z,0.00
2023-04-12T03:32:15.699Z,0.00
2023-04-12T03:33:15.980Z,0.00
2023-04-12T03:34:16.294Z,0.00
2023-04-12T03:35:16.556Z,0.00
2023-04-12T03:36:16.872Z,0.00
2023-04-12T03:37:17.123Z,0.00
2023-04-12T03:38:17.325Z,0.00
2023-04-12T03:39:17.560Z,0.00
2023-04-12T03:40:17.907Z,0.00
2023-04-12T03:41:18.130Z,0.00
2023-04-12T03:42:31.765Z,0.00
2023-04-12T03:43:19.692Z,0.00
2023-04-12T03:44:18.920Z,0.00
2023-04-12T03:45:19.240Z,0.00
2023-04-12T03:46:19.522Z,0.00
2023-04-12T03:47:19.761Z,0.00
2023-04-12T03:48:20.130Z,0.00
2023-04-12T03:49:20.397Z,0.00
2023-04-12T03:50:20.660Z,0.00
2023-04-12T03:51:20.894Z,0.00
2023-04-12T03:52:21.184Z,0.00
2023-04-12T03:53:21.451Z,0.00
2023-04-12T03:54:21.696Z,0.00
2023-04-12T03:55:21.948Z,0.00
2023-04-12T03:56:22.200Z,0.00
2023-04-12T03:57:22.471Z,0.00
2023-04-12T03:58:22.737Z,0.00
2023-04-12T03:59:22.986Z,0.00
2023-04-12T04:00:23.295Z,0.00
2023-04-12T04:01:23.605Z,0.00
2023-04-12T04:02:24.180Z,0.00
2023-04-12T04:03:24.261Z,0.00
2023-04-12T04:04:24.732Z,0.00
2023-04-12T04:05:24.737Z,0.00
2023-04-12T04:06:25.082Z,0.00
2023-04-12T04:07:25.304Z,0.00
2023-04-12T04:08:25.547Z,5.62
2023-04-12T04:09:25.795Z,5.62
2023-04-12T04:10:26.016Z,5.62
2023-04-12T04:11:26.258Z,5.62
2023-04-12T04:12:26.596Z,5.62
2023-04-12T04:13:26.832Z,5.62
2023-04-12T04:14:27.085Z,5.62
2023-04-12T04:15:27.342Z,11.25
2023-04-12T04:16:27.668Z,11.25
2023-04-12T04:17:27.871Z,11.25
2023-04-12T04:18:28.184Z,11.25
2023-04-12T04:19:28.430Z,11.25
2023-04-12T04:20:28.683Z,16.88
2023-04-12T04:21:28.903Z,16.88
2023-04-12T04:22:29.272Z,16.88
2023-04-12T04:23:29.484Z,16.88
2023-04-12T04:24:29.868Z,22.50
2023-04-12T04:25:30.237Z,22.50
2023-04-12T04:26:30.346Z,22.50
2023-04-12T04:27:30.622Z,28.12
2023-04-12T04:28:30.940Z,28.12
2023-04-12T04:29:31.182Z,28.12
2023-04-12T04:30:31.432Z,28.12
2023-04-12T04:31:31.686Z,33.75
2023-04-12T04:32:32.078Z,33.75
2023-04-12T04:33:32.295Z,33.75
2023-04-12T04:34:32.558Z,39.38
2023-04-12T04:35:32.817Z,39.38
2023-04-12T04:36:33.136Z,39.38
2023-04-12T04:37:33.361Z,45.00
2023-04-12T04:38:33.731Z,45.00
2023-04-12T04:39:33.973Z,45.00
2023-04-12T04:40:34.201Z,50.62
2023-04-12T04:41:34.496Z,50.62
2023-04-12T04:42:34.711Z,50.62
2023-04-12T04:43:34.946Z,56.25
2023-04-12T04:44:42.214Z,56.25
2023-04-12T04:45:35.517Z,56.25
2023-04-12T04:46:35.733Z,61.88
2023-04-12T04:47:36.016Z,61.88
2023-04-12T04:48:36.214Z,67.50
2023-04-12T04:49:36.471Z,67.50
2023-04-12T04:50:36.712Z,67.50
2023-04-12T04:51:36.943Z,73.12
2023-04-12T04:52:37.193Z,73.12
2023-04-12T04:53:37.423Z,73.12
2023-04-12T04:54:37.659Z,78.75
2023-04-12T04:55:37.903Z,78.75
2023-04-12T04:56:38.250Z,78.75
2023-04-12T04:57:38.496Z,84.38
2023-04-12T04:58:38.734Z,84.38
2023-04-12T04:59:38.975Z,84.38
2023-04-12T05:00:39.237Z,90.00
2023-04-12T05:01:39.558Z,90.00
2023-04-12T05:02:39.805Z,90.00
2023-04-12T05:03:40.148Z,95.62
2023-04-12T05:04:40.266Z,95.62
2023-04-12T05:05:40.515Z,95.62
2023-04-12T05:06:40.768Z,101.25
2023-04-12T05:07:40.992Z,101.25
2023-04-12T05:08:41.351Z,101.25
2023-04-12T05:09:41.586Z,106.88
2023-04-12T05:10:41.970Z,106.88
2023-04-12T05:11:42.205Z,106.88
2023-04-12T05:12:42.445Z,112.50
2023-04-12T05:13:42.676Z,112.50
2023-04-12T05:14:47.074Z,112.50
2023-04-12T05:15:44.235Z,112.50
2023-04-12T05:16:43.511Z,118.12
2023-04-12T05:17:43.745Z,118.12
2023-04-12T05:18:44.056Z,118.12
2023-04-12T05:19:44.276Z,123.75
2023-04-12T05:20:44.630Z,123.75
2023-04-12T05:21:44.862Z,123.75
2023-04-12T05:22:45.101Z,129.38
2023-04-12T05:23:45.341Z,129.38
2023-04-12T05:24:45.569Z,135.00
2023-04-12T05:25:45.824Z,135.00
2023-04-12T05:26:46.054Z,140.62
2023-04-12T05:27:46.285Z,140.62
2023-04-12T05:28:46.617Z,146.25
2023-04-12T05:29:46.967Z,146.25
2023-04-12T05:30:47.287Z,151.88
2023-04-12T05:31:47.513Z,151.88
2023-04-12T05:32:47.906Z,157.50
2023-04-12T05:33:48.134Z,157.50
2023-04-12T05:34:48.486Z,157.50
2023-04-12T05:35:48.727Z,163.12
2023-04-12T05:36:48.940Z,168.75
2023-04-12T05:37:49.158Z,174.38
2023-04-12T05:38:49.526Z,174.38
2023-04-12T05:39:49.748Z,185.62
2023-04-12T05:40:50.051Z,180.00
2023-04-12T05:41:50.266Z,185.62
2023-04-12T05:42:50.597Z,185.62
2023-04-12T05:43:50.804Z,185.62
2023-04-12T05:44:51.142Z,191.25
2023-04-12T05:45:51.471Z,191.25
2023-04-12T05:46:51.689Z,196.88
2023-04-12T05:47:51.946Z,213.75
2023-04-12T05:48:52.152Z,230.62
2023-04-12T05:49:52.362Z,213.75
2023-04-12T05:50:52.724Z,213.75
2023-04-12T05:51:52.899Z,230.62
2023-04-12T05:52:53.232Z,236.25
2023-04-12T05:53:53.444Z,241.88
2023-04-12T05:54:53.682Z,286.88
2023-04-12T05:55:53.923Z,315.00
2023-04-12T05:56:54.131Z,270.00
2023-04-12T05:57:54.352Z,309.38
2023-04-12T05:58:54.740Z,427.50
2023-04-12T05:59:54.766Z,618.75
2023-04-12T06:00:55.116Z,691.88
2023-04-12T06:01:55.403Z,523.12
2023-04-12T06:02:55.672Z,410.62
2023-04-12T06:03:55.967Z,382.50
2023-04-12T06:04:56.179Z,331.88
2023-04-12T06:05:56.394Z,337.50
2023-04-12T06:06:56.689Z,438.75
2023-04-12T06:07:56.978Z,556.88
2023-04-12T06:08:57.467Z,759.38
2023-04-12T06:09:57.499Z,618.75
2023-04-12T06:10:57.839Z,669.38
2023-04-12T06:11:58.048Z,967.50
2023-04-12T06:12:58.253Z,911.25
2023-04-12T06:13:58.465Z,630.00
2023-04-12T06:14:58.667Z,438.75
2023-04-12T06:15:58.899Z,410.62
2023-04-12T06:16:59.085Z,427.50
2023-04-12T06:17:59.324Z,630.00
2023-04-12T06:18:59.861Z,855.00
2023-04-12T06:19:59.768Z,843.75
2023-04-12T06:20:59.984Z,736.88
2023-04-12T06:22:00.205Z,613.12
2023-04-12T06:23:00.510Z,551.25
2023-04-12T06:24:00.731Z,506.25
2023-04-12T06:25:00.897Z,461.25
2023-04-12T06:26:01.097Z,438.75
2023-04-12T06:27:01.301Z,450.00
2023-04-12T06:28:01.544Z,450.00
2023-04-12T06:29:01.738Z,450.00
2023-04-12T06:30:01.985Z,444.38
2023-04-12T06:31:02.215Z,444.38
2023-04-12T06:32:02.380Z,461.25
2023-04-12T06:33:02.706Z,466.88
2023-04-12T06:34:03.255Z,466.88
2023-04-12T06:35:03.087Z,466.88
2023-04-12T06:36:03.262Z,495.00
2023-04-12T06:37:03.518Z,528.75
2023-04-12T06:38:03.702Z,545.62
2023-04-12T06:39:03.878Z,506.25
2023-04-12T06:40:04.083Z,511.88
2023-04-12T06:41:04.253Z,568.12
2023-04-12T06:42:04.424Z,973.12
2023-04-12T06:43:04.700Z,1153.12
2023-04-12T06:44:04.917Z,916.88
2023-04-12T06:45:05.090Z,1057.50
2023-04-12T06:46:05.274Z,1366.88
2023-04-12T06:47:05.533Z,1496.25
2023-04-12T06:48:05.790Z,1496.25
2023-04-12T06:49:05.829Z,1479.38
2023-04-12T06:50:06.000Z,1558.12
2023-04-12T06:51:06.283Z,1586.25
2023-04-12T06:52:06.453Z,1687.50
2023-04-12T06:53:06.742Z,1676.25
2023-04-12T06:54:06.981Z,1485.00
2023-04-12T06:55:07.132Z,1389.38
2023-04-12T06:56:07.599Z,1794.38
2023-04-12T06:57:07.534Z,1743.75
2023-04-12T06:58:07.705Z,1755.00
2023-04-12T06:59:07.878Z,1940.62
2023-04-12T07:00:08.043Z,1783.12
2023-04-12T07:01:08.457Z,1951.88
2023-04-12T07:02:08.547Z,1800.00
2023-04-12T07:03:08.741Z,1968.75
2023-04-12T07:04:08.962Z,2070.00
2023-04-12T07:05:09.111Z,2131.88
2023-04-12T07:06:23.737Z,2182.50
2023-04-12T07:07:10.534Z,2115.00
2023-04-12T07:08:09.772Z,2075.62
2023-04-12T07:09:09.914Z,2019.38
2023-04-12T07:10:10.093Z,2058.75
2023-04-12T07:12:10.512Z,2238.75
2023-04-12T07:13:10.679Z,1991.25
2023-04-12T07:14:10.880Z,2289.38
2023-04-12T07:15:11.046Z,2171.25
2023-04-12T07:16:11.281Z,2160.00
2023-04-12T07:17:11.436Z,2491.88
2023-04-12T07:18:11.593Z,2452.50
2023-04-12T07:19:11.763Z,2311.88
2023-04-12T07:20:11.929Z,2261.25
2023-04-12T07:21:12.062Z,2278.12
2023-04-12T07:22:13.726Z,2497.50
2023-04-12T07:23:12.362Z,2514.38
2023-04-12T07:24:12.534Z,2379.38
2023-04-12T07:25:12.660Z,2295.00
2023-04-12T07:26:12.929Z,1704.38
2023-04-12T07:27:13.071Z,2418.75
2023-04-12T07:28:13.325Z,2272.50
2023-04-12T07:29:13.460Z,2171.25
2023-04-12T07:30:13.603Z,2660.62
2023-04-12T07:31:13.728Z,2126.25
2023-04-12T07:32:13.961Z,1282.50
2023-04-12T07:33:19.651Z,2126.25
2023-04-12T07:34:15.506Z,1996.88
2023-04-12T07:35:14.403Z,1423.12
2023-04-12T07:36:14.615Z,1310.62
2023-04-12T07:37:14.667Z,1411.88
2023-04-12T07:38:16.703Z,1378.12
2023-04-12T07:39:15.107Z,2115.00
2023-04-12T07:40:15.263Z,2300.62
2023-04-12T07:41:15.383Z,2233.12
2023-04-12T07:42:15.544Z,2255.62
2023-04-12T07:43:15.650Z,1935.00
2023-04-12T07:44:15.792Z,1237.50
2023-04-12T07:45:15.920Z,1895.62
2023-04-12T07:46:16.087Z,1321.88
2023-04-12T07:47:16.203Z,1366.88
2023-04-12T07:48:16.331Z,1372.50
2023-04-12T07:49:16.468Z,1490.62
2023-04-12T07:50:16.604Z,2806.88
2023-04-12T07:51:16.741Z,2143.12
2023-04-12T07:52:16.961Z,2221.88
2023-04-12T07:53:17.075Z,2958.75
2023-04-12T07:54:17.342Z,2683.12
2023-04-12T07:55:17.462Z,2677.50
2023-04-12T07:56:17.620Z,3161.25
2023-04-12T07:57:17.753Z,3189.38
2023-04-12T07:58:17.904Z,2773.12
2023-04-12T07:59:18.037Z,2840.62
2023-04-12T08:00:18.151Z,3211.88
2023-04-12T08:01:18.278Z,3161.25
2023-04-12T08:02:18.483Z,3262.50
2023-04-12T08:03:18.706Z,3268.12
2023-04-12T08:04:18.948Z,3324.38
2023-04-12T08:05:18.934Z,3127.50
2023-04-12T08:06:19.027Z,3099.38
2023-04-12T08:07:19.142Z,3189.38
2023-04-12T08:08:19.268Z,3206.25
2023-04-12T08:09:19.404Z,3285.00
2023-04-12T08:10:19.520Z,2964.38
2023-04-12T08:11:19.640Z,2936.25
2023-04-12T08:12:19.760Z,3166.88
2023-04-12T08:13:19.877Z,3358.12
2023-04-12T08:14:20.036Z,3391.88
2023-04-12T08:15:20.165Z,3369.38
2023-04-12T08:16:20.433Z,3352.50
2023-04-12T08:17:20.470Z,3369.38
2023-04-12T08:18:20.570Z,3425.62
2023-04-12T08:19:20.685Z,3639.38
2023-04-12T08:20:20.850Z,3678.75
2023-04-12T08:21:20.969Z,3695.62
2023-04-12T08:22:21.184Z,3622.50
2023-04-12T08:23:21.286Z,3493.12
2023-04-12T08:24:21.417Z,3555.00
2023-04-12T08:25:21.534Z,3723.75
2023-04-12T08:26:21.656Z,3870.00
2023-04-12T08:27:21.754Z,3622.50
2023-04-12T08:28:21.849Z,3712.50
2023-04-12T08:29:21.966Z,3841.88
2023-04-12T08:30:22.065Z,3785.62
2023-04-12T08:31:22.191Z,3841.88
2023-04-12T08:32:22.287Z,3982.50
2023-04-12T08:33:22.391Z,3926.25
2023-04-12T08:34:22.489Z,3999.38
2023-04-12T08:35:22.596Z,3847.50
2023-04-12T08:36:22.782Z,3656.25
2023-04-12T08:37:22.887Z,3465.00
2023-04-12T08:38:30.619Z,3251.25
2023-04-12T08:39:24.179Z,3431.25
2023-04-12T08:40:23.285Z,3611.25
2023-04-12T08:41:23.344Z,3870.00
2023-04-12T08:42:23.562Z,3712.50
2023-04-12T08:43:23.640Z,3796.88
2023-04-12T08:44:23.856Z,3729.38
2023-04-12T08:45:23.938Z,3442.50
2023-04-12T08:46:24.174Z,3493.12
2023-04-12T08:47:24.305Z,3549.38
2023-04-12T08:48:24.367Z,3633.75
2023-04-12T08:49:24.461Z,3830.62
2023-04-12T08:50:24.571Z,3853.12
2023-04-12T08:51:24.654Z,3757.50
2023-04-12T08:52:24.763Z,3763.12
2023-04-12T08:53:24.907Z,3886.88
2023-04-12T08:54:24.995Z,4151.25
2023-04-12T08:55:25.083Z,3892.50
2023-04-12T08:56:25.172Z,3735.00
2023-04-12T08:57:25.314Z,3976.88
2023-04-12T08:58:25.390Z,4016.25
2023-04-12T08:59:25.511Z,4156.88
2023-04-12T09:00:25.611Z,4055.62
2023-04-12T09:01:25.729Z,3903.75
2023-04-12T09:02:25.960Z,3521.25
2023-04-12T09:03:26.101Z,3999.38
2023-04-12T09:04:26.134Z,3982.50
2023-04-12T09:05:26.324Z,4207.50
2023-04-12T09:06:26.345Z,4275.00
2023-04-12T09:07:26.447Z,4128.75
2023-04-12T09:08:26.540Z,4246.88
2023-04-12T09:09:26.660Z,4196.25
2023-04-12T09:10:26.734Z,4185.00
2023-04-12T09:11:26.825Z,4286.25
2023-04-12T09:12:27.023Z,4303.12
2023-04-12T09:13:27.099Z,4218.75
2023-04-12T09:14:27.200Z,3982.50
2023-04-12T09:15:27.284Z,4050.00
2023-04-12T09:16:27.406Z,4207.50
2023-04-12T09:17:27.513Z,4466.25
2023-04-12T09:18:27.596Z,4612.50
2023-04-12T09:19:27.695Z,4601.25
2023-04-12T09:20:27.765Z,4376.25
2023-04-12T09:21:27.842Z,4055.62
2023-04-12T09:22:27.938Z,4196.25
2023-04-12T09:23:28.019Z,4252.50
2023-04-12T09:24:28.147Z,4111.88
2023-04-12T09:25:28.191Z,4280.62
2023-04-12T09:26:28.375Z,4741.88
2023-04-12T09:27:28.464Z,4730.62
2023-04-12T09:28:28.520Z,4651.88
2023-04-12T09:29:28.584Z,4567.50
2023-04-12T09:30:28.646Z,4207.50
2023-04-12T09:31:28.817Z,4280.62
2023-04-12T09:32:28.921Z,4325.62
2023-04-12T09:33:28.957Z,4381.88
2023-04-12T09:34:29.034Z,4415.62
2023-04-12T09:35:29.101Z,4348.12
2023-04-12T09:36:29.295Z,4353.75
2023-04-12T09:37:29.248Z,4415.62
2023-04-12T09:38:29.319Z,4280.62
2023-04-12T09:39:29.370Z,4303.12
2023-04-12T09:40:29.452Z,4488.75
2023-04-12T09:41:29.513Z,4533.75
2023-04-12T09:42:33.384Z,4511.25
2023-04-12T09:43:30.728Z,4387.50
2023-04-12T09:44:29.833Z,4291.88
2023-04-12T09:45:29.883Z,4348.12
2023-04-12T09:46:30.071Z,4353.75
2023-04-12T09:47:30.043Z,4336.88
2023-04-12T09:48:30.131Z,4331.25
2023-04-12T09:49:30.199Z,4168.12
2023-04-12T09:50:30.308Z,4320.00
2023-04-12T09:51:30.353Z,4404.38
2023-04-12T09:52:32.338Z,4471.88
2023-04-12T09:53:30.482Z,4528.12
2023-04-12T09:54:30.562Z,4545.00
2023-04-12T09:55:30.633Z,4443.75
2023-04-12T09:56:30.681Z,4421.25
2023-04-12T09:57:30.746Z,4730.62
2023-04-12T09:58:31.731Z,4798.12
2023-04-12T09:59:30.881Z,4415.62
2023-04-12T10:00:30.966Z,4246.88
2023-04-12T10:01:31.088Z,4314.38
2023-04-12T10:02:31.326Z,4556.25
2023-04-12T10:03:31.467Z,4601.25
2023-04-12T10:04:31.492Z,4511.25
2023-04-12T10:05:31.728Z,4494.38
2023-04-12T10:06:31.454Z,4663.12
2023-04-12T10:07:31.504Z,4674.38
2023-04-12T10:08:31.561Z,4635.00
2023-04-12T10:09:31.639Z,4511.25
2023-04-12T10:10:31.684Z,4483.12
2023-04-12T10:11:31.724Z,4387.50
2023-04-12T10:12:31.790Z,4314.38
2023-04-12T10:13:31.842Z,4387.50
2023-04-12T10:14:31.939Z,4606.88
2023-04-12T10:15:31.999Z,4488.75
2023-04-12T10:16:32.116Z,4117.50
2023-04-12T10:17:32.149Z,4246.88
2023-04-12T10:18:32.207Z,4258.12
2023-04-12T10:19:32.250Z,4173.75
2023-04-12T10:20:32.297Z,4258.12
2023-04-12T10:21:32.360Z,4410.00
2023-04-12T10:22:32.395Z,4685.62
2023-04-12T10:23:32.479Z,4668.75
2023-04-12T10:24:32.555Z,4651.88
2023-04-12T10:25:32.601Z,4314.38
2023-04-12T10:26:32.665Z,4213.12
2023-04-12T10:27:32.700Z,4618.12
2023-04-12T10:28:32.737Z,4483.12
2023-04-12T10:29:32.803Z,4252.50
2023-04-12T10:30:32.880Z,4471.88
2023-04-12T10:31:32.942Z,4522.50
2023-04-12T10:32:34.867Z,4218.75
2023-04-12T10:33:33.100Z,4128.75
2023-04-12T10:34:33.269Z,4533.75
2023-04-12T10:35:33.346Z,4668.75
2023-04-12T10:36:33.398Z,4556.25
2023-04-12T10:37:33.428Z,4837.50
2023-04-12T10:38:35.967Z,4905.00
2023-04-12T10:39:33.633Z,4910.62
2023-04-12T10:40:33.700Z,4719.38
2023-04-12T10:41:33.750Z,4533.75
2023-04-12T10:42:33.816Z,4629.38
2023-04-12T10:43:33.861Z,4837.50
2023-04-12T10:44:40.909Z,4865.62
2023-04-12T10:45:33.958Z,4730.62
2023-04-12T10:46:34.094Z,4522.50
2023-04-12T10:47:34.210Z,4331.25
2023-04-12T10:48:34.241Z,4336.88
2023-04-12T10:49:34.292Z,4393.12
2023-04-12T10:50:34.459Z,4280.62
2023-04-12T10:51:34.462Z,4505.62
2023-04-12T10:52:34.530Z,4561.88
2023-04-12T10:53:34.591Z,4381.88
2023-04-12T10:54:34.672Z,4314.38
2023-04-12T10:55:34.697Z,4303.12
2023-04-12T10:56:34.738Z,4269.38
2023-04-12T10:57:34.779Z,4308.75
2023-04-12T10:58:34.839Z,4477.50
2023-04-12T10:59:46.873Z,4483.12
2023-04-12T11:00:36.001Z,4280.62
2023-04-12T11:01:37.773Z,4348.12
2023-04-12T11:02:35.274Z,4359.38
2023-04-12T11:03:35.306Z,4314.38
2023-04-12T11:04:35.569Z,4533.75
2023-04-12T11:05:35.572Z,4978.12
2023-04-12T11:06:35.495Z,4921.88
2023-04-12T11:07:35.567Z,4899.38
2023-04-12T11:08:35.683Z,4916.25
2023-04-12T11:09:35.683Z,4775.62
2023-04-12T11:10:35.759Z,4725.00
2023-04-12T11:11:35.819Z,4460.62
2023-04-12T11:12:35.819Z,4545.00
2023-04-12T11:13:35.868Z,3796.88
2023-04-12T11:14:35.961Z,4078.12
2023-04-12T11:15:35.946Z,5006.25
2023-04-12T11:16:36.121Z,5349.38
2023-04-12T11:17:37.819Z,5118.75
2023-04-12T11:18:36.322Z,4995.00
2023-04-12T11:19:36.280Z,5175.00
2023-04-12T11:20:36.363Z,4798.12
2023-04-12T11:21:36.395Z,4702.50
2023-04-12T11:22:36.468Z,4691.25
2023-04-12T11:23:36.508Z,4910.62
2023-04-12T11:24:36.597Z,5045.62
2023-04-12T11:25:36.603Z,4916.25
2023-04-12T11:26:36.658Z,4348.12
2023-04-12T11:27:36.719Z,4246.88
2023-04-12T11:28:36.780Z,4449.38
2023-04-12T11:29:36.834Z,4500.00
2023-04-12T11:30:36.918Z,4567.50
2023-04-12T11:31:36.961Z,4848.75
2023-04-12T11:32:37.074Z,4320.00
2023-04-12T11:33:37.266Z,4314.38
2023-04-12T11:34:37.150Z,4449.38
2023-04-12T11:35:37.182Z,4651.88
2023-04-12T11:36:37.244Z,4640.62
2023-04-12T11:37:37.308Z,4792.50
2023-04-12T11:38:37.338Z,4854.38
2023-04-12T11:39:37.423Z,4640.62
2023-04-12T11:40:37.482Z,3622.50
2023-04-12T11:41:37.582Z,1440.00
2023-04-12T11:42:37.642Z,916.88
2023-04-12T11:43:37.721Z,1265.62
2023-04-12T11:44:52.389Z,4370.62
2023-04-12T11:45:38.832Z,4511.25
2023-04-12T11:46:37.872Z,4623.75
2023-04-12T11:47:38.022Z,4584.38
2023-04-12T11:48:38.020Z,3690.00
2023-04-12T11:49:38.111Z,4342.50
2023-04-12T11:50:38.175Z,4123.12
2023-04-12T11:51:38.245Z,4190.62
2023-04-12T11:52:38.325Z,3245.62
2023-04-12T11:53:38.443Z,2801.25
2023-04-12T11:54:38.466Z,855.00
2023-04-12T11:55:38.537Z,843.75
2023-04-12T11:56:38.624Z,759.38
2023-04-12T11:57:38.708Z,832.50
2023-04-12T11:58:38.773Z,990.00
2023-04-12T11:59:38.861Z,1102.50
2023-04-12T12:00:38.933Z,1136.25
2023-04-12T12:01:39.088Z,1181.25
2023-04-12T12:02:49.000Z,1186.88
2023-04-12T12:03:40.364Z,1181.25
2023-04-12T12:04:39.679Z,1203.75
2023-04-12T12:05:39.840Z,1192.50
2023-04-12T12:06:40.333Z,1299.38
2023-04-12T12:07:39.716Z,1378.12
2023-04-12T12:08:39.859Z,1395.00
2023-04-12T12:09:39.998Z,1389.38
2023-04-12T12:10:55.539Z,1220.62
2023-04-12T12:11:41.360Z,1096.88
2023-04-12T12:12:40.434Z,1068.75
2023-04-12T12:13:41.212Z,1051.88
2023-04-12T12:14:40.677Z,1108.12
2023-04-12T12:15:40.874Z,1141.88
2023-04-12T12:16:40.954Z,1170.00
2023-04-12T12:17:41.162Z,1170.00
2023-04-12T12:18:41.246Z,1181.25
2023-04-12T12:19:41.531Z,1243.12
2023-04-12T12:20:41.631Z,1411.88
2023-04-12T12:21:41.759Z,1518.75
2023-04-12T12:22:41.843Z,1513.12
2023-04-12T12:23:42.066Z,1648.12
2023-04-12T12:24:43.660Z,1732.50
2023-04-12T12:25:42.317Z,1670.62
2023-04-12T12:26:42.426Z,1603.12
2023-04-12T12:27:42.720Z,1591.88
2023-04-12T12:28:42.781Z,1513.12
2023-04-12T12:29:42.908Z,1535.62
2023-04-12T12:30:43.039Z,1462.50
2023-04-12T12:31:43.361Z,1642.50
2023-04-12T12:32:43.271Z,1186.88
2023-04-12T12:33:47.044Z,1400.62
2023-04-12T12:34:44.701Z,1513.12
2023-04-12T12:35:43.813Z,1563.75
2023-04-12T12:36:43.908Z,1518.75
2023-04-12T12:37:44.044Z,1288.12
2023-04-12T12:38:44.157Z,1113.75